Flugplatz Husum-Schwesing

Für EDXJ sind keine METAR/TAF Berichte vorhanden.
Es werden die Flugwettermeldungen vom Flugplatz Schleswig Airport in 25 km Entfernung angezeigt.

Bericht für ETNS

vom 31.05. um 04:20 UTC

Wind 5 kt aus 20°

Sichtweite 6000 m

Temperatur 11.0°C

Taupunkt 8.0°C

Luftfeuchtigkeit 82%

Luftdruck 1026 hPa

ETNS 310420Z AUTO 02005KT 6000 // ////// 11/08 Q1026 ///
Keine Prognose (TAF) verfügbar.
Impressum